sensor_id;sensor_type;location;lat;lon;timestamp;pressure;altitude;pressure_sealevel;temperature;humidity
27202;BME280;14717;46.924;15.474;2022-09-03T00:01:57;97852.41;;;14.50;94.28
27202;BME280;14717;46.924;15.474;2022-09-03T00:04:29;97855.38;;;14.76;93.92
27202;BME280;14717;46.924;15.474;2022-09-03T00:07:01;97852.69;;;14.62;94.59
27202;BME280;14717;46.924;15.474;2022-09-03T00:09:33;97852.25;;;14.47;95.39
27202;BME280;14717;46.924;15.474;2022-09-03T00:12:10;97849.53;;;14.34;96.18
27202;BME280;14717;46.924;15.474;2022-09-03T00:14:45;97853.97;;;14.35;97.38
27202;BME280;14717;46.924;15.474;2022-09-03T00:17:17;97845.19;;;14.19;96.16
27202;BME280;14717;46.924;15.474;2022-09-03T00:20:09;97848.50;;;14.21;99.26
27202;BME280;14717;46.924;15.474;2022-09-03T00:22:47;97844.13;;;14.29;97.10
27202;BME280;14717;46.924;15.474;2022-09-03T00:25:22;97840.91;;;14.13;98.22
27202;BME280;14717;46.924;15.474;2022-09-03T00:27:52;97836.59;;;14.07;98.13
27202;BME280;14717;46.924;15.474;2022-09-03T00:30:18;97840.91;;;14.13;96.16
27202;BME280;14717;46.924;15.474;2022-09-03T00:32:49;97840.25;;;14.38;97.57
27202;BME280;14717;46.924;15.474;2022-09-03T00:35:24;97830.63;;;14.66;95.46
27202;BME280;14717;46.924;15.474;2022-09-03T00:37:52;97835.19;;;14.40;94.13
27202;BME280;14717;46.924;15.474;2022-09-03T00:43:35;97825.66;;;14.54;93.88
27202;BME280;14717;46.924;15.474;2022-09-03T00:51:50;97829.59;;;14.32;95.81
27202;BME280;14717;46.924;15.474;2022-09-03T00:54:40;97824.25;;;14.13;93.66
27202;BME280;14717;46.924;15.474;2022-09-03T00:57:46;97827.25;;;14.25;94.70
27202;BME280;14717;46.924;15.474;2022-09-03T01:00:17;97829.63;;;14.40;93.87
27202;BME280;14717;46.924;15.474;2022-09-03T01:16:24;97823.00;;;14.28;92.97
27202;BME280;14717;46.924;15.474;2022-09-03T01:29:23;97830.66;;;14.22;94.79
27202;BME280;14717;46.924;15.474;2022-09-03T01:40:26;97829.53;;;14.23;95.37
27202;BME280;14717;46.924;15.474;2022-09-03T01:44:00;97831.25;;;13.98;95.30
27202;BME280;14717;46.924;15.474;2022-09-03T01:46:22;97832.88;;;14.12;95.85
27202;BME280;14717;46.924;15.474;2022-09-03T01:49:14;97836.22;;;14.22;95.21
27202;BME280;14717;46.924;15.474;2022-09-03T01:51:50;97840.66;;;14.23;94.35
27202;BME280;14717;46.924;15.474;2022-09-03T02:02:48;97850.00;;;13.57;94.93
27202;BME280;14717;46.924;15.474;2022-09-03T02:05:22;97843.59;;;13.35;97.39
27202;BME280;14717;46.924;15.474;2022-09-03T02:07:56;97839.88;;;13.26;97.59
27202;BME280;14717;46.924;15.474;2022-09-03T02:10:46;97852.63;;;13.27;98.23
27202;BME280;14717;46.924;15.474;2022-09-03T02:13:15;97851.63;;;13.23;98.27
27202;BME280;14717;46.924;15.474;2022-09-03T02:15:44;97853.56;;;13.22;98.06
27202;BME280;14717;46.924;15.474;2022-09-03T02:18:18;97853.88;;;13.08;98.73
27202;BME280;14717;46.924;15.474;2022-09-03T02:20:45;97859.03;;;13.01;98.70
27202;BME280;14717;46.924;15.474;2022-09-03T02:23:12;97855.03;;;13.07;99.71
27202;BME280;14717;46.924;15.474;2022-09-03T02:25:41;97853.66;;;13.18;98.38
27202;BME280;14717;46.924;15.474;2022-09-03T02:28:09;97857.91;;;13.15;97.65
27202;BME280;14717;46.924;15.474;2022-09-03T02:30:34;97862.31;;;13.29;97.93
27202;BME280;14717;46.924;15.474;2022-09-03T02:33:00;97867.41;;;13.49;96.74
27202;BME280;14717;46.924;15.474;2022-09-03T02:35:25;97864.13;;;13.34;95.44
27202;BME280;14717;46.924;15.474;2022-09-03T02:37:51;97861.88;;;13.22;97.54
27202;BME280;14717;46.924;15.474;2022-09-03T02:40:16;97870.50;;;13.48;97.18
27202;BME280;14717;46.924;15.474;2022-09-03T02:42:43;97871.91;;;13.59;95.53
27202;BME280;14717;46.924;15.474;2022-09-03T02:45:27;97863.66;;;13.67;94.83
27202;BME280;14717;46.924;15.474;2022-09-03T02:47:59;97866.78;;;13.65;94.18
27202;BME280;14717;46.924;15.474;2022-09-03T02:50:25;97873.19;;;13.39;94.24
27202;BME280;14717;46.924;15.474;2022-09-03T02:52:51;97874.03;;;13.13;95.89
27202;BME280;14717;46.924;15.474;2022-09-03T02:55:16;97867.00;;;13.29;96.54
27202;BME280;14717;46.924;15.474;2022-09-03T02:57:43;97863.13;;;13.17;94.74
27202;BME280;14717;46.924;15.474;2022-09-03T03:00:08;97870.63;;;13.03;94.81
27202;BME280;14717;46.924;15.474;2022-09-03T03:02:34;97876.06;;;12.94;97.27
27202;BME280;14717;46.924;15.474;2022-09-03T03:04:59;97872.88;;;13.27;97.35
27202;BME280;14717;46.924;15.474;2022-09-03T03:07:27;97874.13;;;13.21;95.53
27202;BME280;14717;46.924;15.474;2022-09-03T03:09:53;97875.97;;;12.86;95.93
27202;BME280;14717;46.924;15.474;2022-09-03T03:12:18;97874.66;;;12.97;96.90
27202;BME280;14717;46.924;15.474;2022-09-03T03:14:44;97871.97;;;12.92;97.27
27202;BME280;14717;46.924;15.474;2022-09-03T03:17:09;97877.19;;;12.80;96.49
27202;BME280;14717;46.924;15.474;2022-09-03T03:19:34;97873.63;;;12.61;97.19
27202;BME280;14717;46.924;15.474;2022-09-03T03:22:00;97865.75;;;12.68;97.66
27202;BME280;14717;46.924;15.474;2022-09-03T03:24:25;97862.22;;;12.49;97.94
27202;BME280;14717;46.924;15.474;2022-09-03T03:26:54;97862.44;;;12.53;98.41
27202;BME280;14717;46.924;15.474;2022-09-03T03:29:22;97861.53;;;12.57;97.87
27202;BME280;14717;46.924;15.474;2022-09-03T03:31:49;97876.00;;;12.54;97.47
27202;BME280;14717;46.924;15.474;2022-09-03T03:34:14;97869.16;;;12.65;96.91
27202;BME280;14717;46.924;15.474;2022-09-03T03:36:40;97873.75;;;12.70;98.59
27202;BME280;14717;46.924;15.474;2022-09-03T03:39:05;97867.44;;;12.96;98.92
27202;BME280;14717;46.924;15.474;2022-09-03T03:41:33;97875.00;;;12.64;99.45
27202;BME280;14717;46.924;15.474;2022-09-03T03:44:02;97870.78;;;12.79;100.00
27202;BME280;14717;46.924;15.474;2022-09-03T03:46:30;97873.69;;;12.88;98.47
27202;BME280;14717;46.924;15.474;2022-09-03T03:48:56;97873.97;;;12.73;97.01
27202;BME280;14717;46.924;15.474;2022-09-03T03:51:21;97877.41;;;12.52;97.86
27202;BME280;14717;46.924;15.474;2022-09-03T03:53:48;97870.75;;;12.53;98.91
27202;BME280;14717;46.924;15.474;2022-09-03T03:56:14;97876.22;;;12.71;97.69
27202;BME280;14717;46.924;15.474;2022-09-03T03:58:41;97883.34;;;12.45;95.66
27202;BME280;14717;46.924;15.474;2022-09-03T04:03:33;97880.66;;;12.40;97.26
27202;BME280;14717;46.924;15.474;2022-09-03T04:05:59;97882.28;;;12.28;98.32
27202;BME280;14717;46.924;15.474;2022-09-03T04:08:26;97879.09;;;12.21;97.83
27202;BME280;14717;46.924;15.474;2022-09-03T04:10:52;97866.94;;;12.17;98.75
27202;BME280;14717;46.924;15.474;2022-09-03T04:13:18;97871.34;;;12.05;100.00
27202;BME280;14717;46.924;15.474;2022-09-03T04:15:43;97859.78;;;12.16;100.00
27202;BME280;14717;46.924;15.474;2022-09-03T04:18:09;97860.09;;;12.15;100.00
27202;BME280;14717;46.924;15.474;2022-09-03T04:20:35;97865.25;;;12.21;100.00
27202;BME280;14717;46.924;15.474;2022-09-03T04:23:01;97877.16;;;12.35;100.00
27202;BME280;14717;46.924;15.474;2022-09-03T04:25:27;97868.56;;;12.36;100.00
27202;BME280;14717;46.924;15.474;2022-09-03T04:27:53;97859.03;;;12.42;100.00
27202;BME280;14717;46.924;15.474;2022-09-03T04:30:19;97859.47;;;12.49;100.00
27202;BME280;14717;46.924;15.474;2022-09-03T04:32:44;97847.50;;;12.67;99.18
27202;BME280;14717;46.924;15.474;2022-09-03T04:35:23;97858.97;;;12.74;98.67
27202;BME280;14717;46.924;15.474;2022-09-03T04:37:50;97865.25;;;12.79;97.39
27202;BME280;14717;46.924;15.474;2022-09-03T04:40:15;97868.50;;;13.00;96.92
27202;BME280;14717;46.924;15.474;2022-09-03T04:42:41;97868.06;;;13.06;96.77
27202;BME280;14717;46.924;15.474;2022-09-03T04:45:07;97866.84;;;13.12;96.82
27202;BME280;14717;46.924;15.474;2022-09-03T04:47:32;97863.44;;;13.28;96.11
27202;BME280;14717;46.924;15.474;2022-09-03T04:49:58;97862.31;;;13.29;95.76
27202;BME280;14717;46.924;15.474;2022-09-03T04:52:27;97874.25;;;13.17;96.01
27202;BME280;14717;46.924;15.474;2022-09-03T04:54:56;97863.25;;;13.12;96.65
27202;BME280;14717;46.924;15.474;2022-09-03T04:57:21;97870.63;;;12.89;96.53
27202;BME280;14717;46.924;15.474;2022-09-03T04:59:47;97857.53;;;12.63;98.31
27202;BME280;14717;46.924;15.474;2022-09-03T05:02:12;97869.22;;;12.60;99.04
27202;BME280;14717;46.924;15.474;2022-09-03T05:04:40;97872.72;;;12.66;100.00
27202;BME280;14717;46.924;15.474;2022-09-03T05:07:05;97869.66;;;12.80;99.06
27202;BME280;14717;46.924;15.474;2022-09-03T05:09:31;97862.25;;;12.76;99.28
27202;BME280;14717;46.924;15.474;2022-09-03T05:11:57;97866.22;;;13.02;99.21
27202;BME280;14717;46.924;15.474;2022-09-03T05:14:22;97870.53;;;13.08;98.71
27202;BME280;14717;46.924;15.474;2022-09-03T05:16:47;97867.34;;;13.14;98.58
27202;BME280;14717;46.924;15.474;2022-09-03T05:19:13;97879.97;;;13.33;97.74
27202;BME280;14717;46.924;15.474;2022-09-03T05:21:38;97876.69;;;13.31;98.07
27202;BME280;14717;46.924;15.474;2022-09-03T05:24:04;97874.25;;;13.17;99.36
27202;BME280;14717;46.924;15.474;2022-09-03T05:26:32;97864.16;;;13.20;100.00
27202;BME280;14717;46.924;15.474;2022-09-03T05:29:01;97875.44;;;13.24;100.00
27202;BME280;14717;46.924;15.474;2022-09-03T05:31:32;97871.75;;;13.28;100.00
27202;BME280;14717;46.924;15.474;2022-09-03T05:33:59;97882.41;;;13.48;100.00
27202;BME280;14717;46.924;15.474;2022-09-03T05:36:27;97883.22;;;13.49;99.82
27202;BME280;14717;46.924;15.474;2022-09-03T05:38:53;97882.38;;;13.61;99.60
27202;BME280;14717;46.924;15.474;2022-09-03T05:41:20;97878.06;;;13.69;98.78
27202;BME280;14717;46.924;15.474;2022-09-03T05:43:51;97875.53;;;13.59;100.00
27202;BME280;14717;46.924;15.474;2022-09-03T05:46:22;97872.31;;;13.52;100.00
27202;BME280;14717;46.924;15.474;2022-09-03T05:48:51;97873.84;;;13.71;99.90
27202;BME280;14717;46.924;15.474;2022-09-03T05:51:17;97870.81;;;13.81;100.00
27202;BME280;14717;46.924;15.474;2022-09-03T05:53:47;97871.88;;;13.72;100.00
27202;BME280;14717;46.924;15.474;2022-09-03T05:56:15;97868.53;;;13.97;100.00
27202;BME280;14717;46.924;15.474;2022-09-03T05:58:48;97877.41;;;14.20;98.99
27202;BME280;14717;46.924;15.474;2022-09-03T06:01:31;97875.19;;;14.31;98.24
27202;BME280;14717;46.924;15.474;2022-09-03T06:04:03;97875.28;;;14.47;96.01
27202;BME280;14717;46.924;15.474;2022-09-03T06:06:31;97881.16;;;14.68;95.30
27202;BME280;14717;46.924;15.474;2022-09-03T06:08:59;97879.41;;;14.50;96.26
27202;BME280;14717;46.924;15.474;2022-09-03T06:11:27;97883.38;;;14.36;97.00
27202;BME280;14717;46.924;15.474;2022-09-03T06:13:54;97882.78;;;14.69;97.56
27202;BME280;14717;46.924;15.474;2022-09-03T06:16:21;97885.28;;;15.00;95.73
27202;BME280;14717;46.924;15.474;2022-09-03T06:18:46;97892.31;;;15.28;95.10
27202;BME280;14717;46.924;15.474;2022-09-03T06:21:12;97882.97;;;15.02;95.37
27202;BME280;14717;46.924;15.474;2022-09-03T06:23:39;97878.75;;;15.13;96.90
27202;BME280;14717;46.924;15.474;2022-09-03T06:26:08;97878.25;;;15.11;95.98
27202;BME280;14717;46.924;15.474;2022-09-03T06:28:36;97882.19;;;15.40;94.38
27202;BME280;14717;46.924;15.474;2022-09-03T06:31:04;97870.59;;;15.55;92.31
27202;BME280;14717;46.924;15.474;2022-09-03T06:33:31;97868.50;;;15.77;89.73
27202;BME280;14717;46.924;15.474;2022-09-03T06:36:00;97875.38;;;15.88;86.90
27202;BME280;14717;46.924;15.474;2022-09-03T06:38:28;97877.84;;;16.07;87.78
27202;BME280;14717;46.924;15.474;2022-09-03T06:40:58;97877.72;;;16.20;88.93
27202;BME280;14717;46.924;15.474;2022-09-03T06:43:30;97870.81;;;16.09;87.92
27202;BME280;14717;46.924;15.474;2022-09-03T06:46:00;97879.38;;;16.21;87.57
27202;BME280;14717;46.924;15.474;2022-09-03T06:48:27;97870.50;;;16.36;86.23
27202;BME280;14717;46.924;15.474;2022-09-03T06:50:59;97861.66;;;16.17;88.87
27202;BME280;14717;46.924;15.474;2022-09-03T06:53:27;97868.03;;;16.01;89.21
27202;BME280;14717;46.924;15.474;2022-09-03T06:55:58;97867.72;;;16.27;86.68
27202;BME280;14717;46.924;15.474;2022-09-03T06:58:28;97872.63;;;16.47;86.00
27202;BME280;14717;46.924;15.474;2022-09-03T07:03:28;97864.44;;;16.42;86.98
27202;BME280;14717;46.924;15.474;2022-09-03T07:05:59;97862.94;;;16.62;84.59
27202;BME280;14717;46.924;15.474;2022-09-03T07:08:24;97854.75;;;16.48;86.91
27202;BME280;14717;46.924;15.474;2022-09-03T07:10:50;97869.78;;;16.72;87.34
27202;BME280;14717;46.924;15.474;2022-09-03T07:13:16;97866.41;;;17.12;84.92
27202;BME280;14717;46.924;15.474;2022-09-03T07:15:41;97868.06;;;17.05;83.93
27202;BME280;14717;46.924;15.474;2022-09-03T07:18:06;97864.13;;;17.06;81.88
27202;BME280;14717;46.924;15.474;2022-09-03T07:20:33;97861.44;;;17.18;81.73
27202;BME280;14717;46.924;15.474;2022-09-03T07:22:59;97860.44;;;17.31;80.75
27202;BME280;14717;46.924;15.474;2022-09-03T07:25:24;97860.44;;;17.31;81.25
27202;BME280;14717;46.924;15.474;2022-09-03T07:27:53;97864.72;;;17.57;77.92
27202;BME280;14717;46.924;15.474;2022-09-03T07:30:18;97860.16;;;17.81;76.96
27202;BME280;14717;46.924;15.474;2022-09-03T07:32:45;97860.16;;;17.81;75.44
27202;BME280;14717;46.924;15.474;2022-09-03T07:35:12;97855.38;;;18.02;75.36
27202;BME280;14717;46.924;15.474;2022-09-03T07:37:40;97861.69;;;18.19;76.30
27202;BME280;14717;46.924;15.474;2022-09-03T07:40:07;97850.44;;;18.60;74.73
27202;BME280;14717;46.924;15.474;2022-09-03T07:42:33;97851.22;;;18.80;71.79
27202;BME280;14717;46.924;15.474;2022-09-03T07:45:00;97857.66;;;18.93;72.12
27202;BME280;14717;46.924;15.474;2022-09-03T07:47:30;97867.91;;;18.77;72.04
27202;BME280;14717;46.924;15.474;2022-09-03T07:49:56;97863.56;;;18.79;71.05
27202;BME280;14717;46.924;15.474;2022-09-03T07:52:21;97849.56;;;19.00;72.30
27202;BME280;14717;46.924;15.474;2022-09-03T07:54:47;97855.69;;;19.37;70.33
27202;BME280;14717;46.924;15.474;2022-09-03T07:57:12;97859.41;;;19.29;70.08
27202;BME280;14717;46.924;15.474;2022-09-03T07:59:38;97864.78;;;19.58;73.61
27202;BME280;14717;46.924;15.474;2022-09-03T08:02:03;97860.34;;;19.81;71.59
27202;BME280;14717;46.924;15.474;2022-09-03T08:04:30;97856.38;;;19.82;69.36
27202;BME280;14717;46.924;15.474;2022-09-03T08:06:58;97859.09;;;19.90;70.01
27202;BME280;14717;46.924;15.474;2022-09-03T08:09:24;97865.09;;;20.16;67.24
27202;BME280;14717;46.924;15.474;2022-09-03T08:11:49;97863.91;;;20.29;65.13
27202;BME280;14717;46.924;15.474;2022-09-03T08:14:15;97869.59;;;20.44;66.63
27202;BME280;14717;46.924;15.474;2022-09-03T08:16:43;97856.19;;;20.65;66.97
27202;BME280;14717;46.924;15.474;2022-09-03T08:19:10;97855.19;;;20.46;66.46
27202;BME280;14717;46.924;15.474;2022-09-03T08:21:37;97856.63;;;20.79;65.94
27202;BME280;14717;46.924;15.474;2022-09-03T08:24:06;97867.19;;;20.70;64.08
27202;BME280;14717;46.924;15.474;2022-09-03T08:26:34;97868.72;;;20.55;63.52
27202;BME280;14717;46.924;15.474;2022-09-03T08:29:00;97859.50;;;20.55;64.93
27202;BME280;14717;46.924;15.474;2022-09-03T08:31:26;97855.34;;;20.92;65.33
27202;BME280;14717;46.924;15.474;2022-09-03T08:33:53;97859.97;;;20.84;64.21
27202;BME280;14717;46.924;15.474;2022-09-03T08:36:21;97857.25;;;21.15;64.54
27202;BME280;14717;46.924;15.474;2022-09-03T08:38:47;97853.06;;;21.09;63.88
27202;BME280;14717;46.924;15.474;2022-09-03T08:46:36;97856.66;;;21.09;63.17
27202;BME280;14717;46.924;15.474;2022-09-03T08:49:06;97846.44;;;21.32;62.14
27202;BME280;14717;46.924;15.474;2022-09-03T08:51:35;97849.00;;;21.37;62.89
27202;BME280;14717;46.924;15.474;2022-09-03T08:54:04;97838.38;;;21.31;61.86
27202;BME280;14717;46.924;15.474;2022-09-03T08:56:32;97844.63;;;21.24;63.15
27202;BME280;14717;46.924;15.474;2022-09-03T08:59:02;97851.03;;;21.52;62.35
27202;BME280;14717;46.924;15.474;2022-09-03T09:04:44;97840.66;;;21.71;63.07
27202;BME280;14717;46.924;15.474;2022-09-03T09:07:17;97843.31;;;21.98;60.14
27202;BME280;14717;46.924;15.474;2022-09-03T09:09:52;97840.00;;;21.93;60.58
27202;BME280;14717;46.924;15.474;2022-09-03T09:15:27;97845.84;;;22.03;57.63
27202;BME280;14717;46.924;15.474;2022-09-03T09:18:19;97835.59;;;22.45;59.77
27202;BME280;14717;46.924;15.474;2022-09-03T09:21:06;97840.94;;;22.68;57.14
27202;BME280;14717;46.924;15.474;2022-09-03T09:23:40;97837.53;;;22.60;57.74
27202;BME280;14717;46.924;15.474;2022-09-03T09:26:15;97838.94;;;22.50;57.07
27202;BME280;14717;46.924;15.474;2022-09-03T09:28:44;97832.91;;;22.70;57.43
27202;BME280;14717;46.924;15.474;2022-09-03T09:31:14;97832.78;;;23.01;56.73
27202;BME280;14717;46.924;15.474;2022-09-03T09:33:42;97821.94;;;22.84;56.59
27202;BME280;14717;46.924;15.474;2022-09-03T09:36:10;97822.69;;;22.81;56.53
27202;BME280;14717;46.924;15.474;2022-09-03T09:38:38;97823.34;;;22.94;56.84
27202;BME280;14717;46.924;15.474;2022-09-03T09:41:08;97826.09;;;23.09;55.99
27202;BME280;14717;46.924;15.474;2022-09-03T09:43:34;97828.06;;;23.08;56.75
27202;BME280;14717;46.924;15.474;2022-09-03T09:46:18;97832.91;;;23.08;57.34
27202;BME280;14717;46.924;15.474;2022-09-03T09:48:55;97832.91;;;23.08;56.16
27202;BME280;14717;46.924;15.474;2022-09-03T09:51:24;97824.88;;;23.10;56.40
27202;BME280;14717;46.924;15.474;2022-09-03T09:54:11;97826.78;;;23.25;56.70
27202;BME280;14717;46.924;15.474;2022-09-03T09:56:37;97830.44;;;23.25;57.22
27202;BME280;14717;46.924;15.474;2022-09-03T09:59:07;97839.44;;;23.12;60.38
27202;BME280;14717;46.924;15.474;2022-09-03T10:01:37;97841.50;;;23.15;56.91
27202;BME280;14717;46.924;15.474;2022-09-03T10:06:35;97836.63;;;23.34;56.34
27202;BME280;14717;46.924;15.474;2022-09-03T10:09:30;97840.09;;;23.69;56.31
27202;BME280;14717;46.924;15.474;2022-09-03T10:14:54;97838.66;;;23.78;54.06
27202;BME280;14717;46.924;15.474;2022-09-03T10:18:02;97830.97;;;23.79;52.75
27202;BME280;14717;46.924;15.474;2022-09-03T10:20:45;97830.72;;;23.87;53.93
27202;BME280;14717;46.924;15.474;2022-09-03T10:23:23;97840.41;;;23.86;54.32
27202;BME280;14717;46.924;15.474;2022-09-03T10:26:14;97839.78;;;23.74;52.91
27202;BME280;14717;46.924;15.474;2022-09-03T10:28:41;97834.81;;;23.67;53.32
27202;BME280;14717;46.924;15.474;2022-09-03T10:34:01;97845.28;;;24.15;54.21
27202;BME280;14717;46.924;15.474;2022-09-03T10:39:44;97830.28;;;24.37;52.40
27202;BME280;14717;46.924;15.474;2022-09-03T10:42:20;97832.81;;;24.45;51.87
27202;BME280;14717;46.924;15.474;2022-09-03T10:45:03;97828.91;;;24.53;52.33
27202;BME280;14717;46.924;15.474;2022-09-03T10:47:44;97819.28;;;24.57;50.64
27202;BME280;14717;46.924;15.474;2022-09-03T10:50:24;97816.06;;;24.59;51.31
27202;BME280;14717;46.924;15.474;2022-09-03T10:53:13;97810.47;;;24.62;50.85
27202;BME280;14717;46.924;15.474;2022-09-03T10:55:47;97816.28;;;24.18;51.01
27202;BME280;14717;46.924;15.474;2022-09-03T11:00:48;97809.13;;;24.85;50.87
27202;BME280;14717;46.924;15.474;2022-09-03T11:05:59;97811.84;;;25.08;51.46
27202;BME280;14717;46.924;15.474;2022-09-03T11:11:25;97815.91;;;25.10;49.88
27202;BME280;14717;46.924;15.474;2022-09-03T11:14:07;97805.69;;;25.38;49.54
27202;BME280;14717;46.924;15.474;2022-09-03T11:17:00;97808.78;;;25.23;49.87
27202;BME280;14717;46.924;15.474;2022-09-03T11:19:35;97800.75;;;25.28;49.05
27202;BME280;14717;46.924;15.474;2022-09-03T11:22:05;97803.16;;;25.26;49.34
27202;BME280;14717;46.924;15.474;2022-09-03T11:24:32;97803.41;;;25.54;49.19
27202;BME280;14717;46.924;15.474;2022-09-03T11:29:49;97786.53;;;25.22;47.99
27202;BME280;14717;46.924;15.474;2022-09-03T11:32:23;97800.13;;;25.45;49.17
27202;BME280;14717;46.924;15.474;2022-09-03T11:34:51;97792.09;;;25.54;49.26
27202;BME280;14717;46.924;15.474;2022-09-03T11:42:41;97789.78;;;25.67;47.92
27202;BME280;14717;46.924;15.474;2022-09-03T11:47:54;97791.50;;;25.78;47.63
27202;BME280;14717;46.924;15.474;2022-09-03T11:50:31;97788.31;;;25.83;47.06
27202;BME280;14717;46.924;15.474;2022-09-03T11:53:23;97791.25;;;25.97;47.25
27202;BME280;14717;46.924;15.474;2022-09-03T11:58:38;97794.94;;;26.04;47.46
27202;BME280;14717;46.924;15.474;2022-09-03T12:01:08;97795.03;;;26.14;47.52
27202;BME280;14717;46.924;15.474;2022-09-03T12:03:43;97787.78;;;26.20;48.15
27202;BME280;14717;46.924;15.474;2022-09-03T12:06:33;97784.69;;;26.39;47.55
27202;BME280;14717;46.924;15.474;2022-09-03T12:19:53;97780.56;;;26.26;45.71
27202;BME280;14717;46.924;15.474;2022-09-03T12:22:22;97776.84;;;26.22;47.69
27202;BME280;14717;46.924;15.474;2022-09-03T12:24:48;97776.53;;;26.31;47.65
27202;BME280;14717;46.924;15.474;2022-09-03T12:27:23;97777.81;;;26.44;47.79
27202;BME280;14717;46.924;15.474;2022-09-03T12:29:51;97763.72;;;26.64;47.03
27202;BME280;14717;46.924;15.474;2022-09-03T12:32:22;97772.66;;;26.66;46.09
27202;BME280;14717;46.924;15.474;2022-09-03T12:34:48;97769.75;;;26.49;45.41
27202;BME280;14717;46.924;15.474;2022-09-03T12:37:25;97766.97;;;26.63;47.09
27202;BME280;14717;46.924;15.474;2022-09-03T12:39:52;97758.28;;;26.28;46.14
27202;BME280;14717;46.924;15.474;2022-09-03T12:44:49;97745.47;;;26.55;46.56
27202;BME280;14717;46.924;15.474;2022-09-03T12:47:24;97746.75;;;26.75;45.94
27202;BME280;14717;46.924;15.474;2022-09-03T12:49:51;97741.13;;;26.82;46.05
27202;BME280;14717;46.924;15.474;2022-09-03T12:54:56;97743.50;;;26.73;45.12
27202;BME280;14717;46.924;15.474;2022-09-03T12:57:27;97741.44;;;26.63;47.25
27202;BME280;14717;46.924;15.474;2022-09-03T12:59:57;97745.22;;;26.95;45.31
27202;BME280;14717;46.924;15.474;2022-09-03T13:03:07;97733.75;;;26.63;45.02
27202;BME280;14717;46.924;15.474;2022-09-03T13:05:33;97732.66;;;26.92;45.42
27202;BME280;14717;46.924;15.474;2022-09-03T13:08:06;97727.72;;;26.72;44.25
27202;BME280;14717;46.924;15.474;2022-09-03T13:10:35;97724.03;;;26.64;44.61
27202;BME280;14717;46.924;15.474;2022-09-03T13:23:51;97720.41;;;26.67;46.43
27202;BME280;14717;46.924;15.474;2022-09-03T13:26:23;97720.38;;;26.60;45.26
27202;BME280;14717;46.924;15.474;2022-09-03T13:31:53;97713.09;;;26.70;44.36
27202;BME280;14717;46.924;15.474;2022-09-03T13:34:33;97713.94;;;26.70;44.42
27202;BME280;14717;46.924;15.474;2022-09-03T13:37:11;97709.06;;;26.71;44.60
27202;BME280;14717;46.924;15.474;2022-09-03T13:39:54;97707.00;;;26.57;44.53
27202;BME280;14717;46.924;15.474;2022-09-03T13:45:20;97698.97;;;26.77;44.74
27202;BME280;14717;46.924;15.474;2022-09-03T13:48:14;97708.72;;;26.90;45.32
27202;BME280;14717;46.924;15.474;2022-09-03T13:51:18;97702.91;;;26.52;45.63
27202;BME280;14717;46.924;15.474;2022-09-03T13:54:16;97705.38;;;26.60;45.92
27202;BME280;14717;46.924;15.474;2022-09-03T14:04:46;97694.91;;;26.85;45.51
27202;BME280;14717;46.924;15.474;2022-09-03T14:07:22;97704.69;;;26.94;45.63
27202;BME280;14717;46.924;15.474;2022-09-03T14:10:20;97694.09;;;26.84;46.01
27202;BME280;14717;46.924;15.474;2022-09-03T14:12:52;97695.78;;;26.89;45.01
27202;BME280;14717;46.924;15.474;2022-09-03T14:15:25;97691.75;;;27.03;44.97
27202;BME280;14717;46.924;15.474;2022-09-03T14:18:02;97687.28;;;26.96;45.11
27202;BME280;14717;46.924;15.474;2022-09-03T14:20:55;97686.47;;;27.16;46.07
27202;BME280;14717;46.924;15.474;2022-09-03T14:23:54;97689.31;;;26.92;46.77
27202;BME280;14717;46.924;15.474;2022-09-03T14:26:28;97686.88;;;26.97;45.92
27202;BME280;14717;46.924;15.474;2022-09-03T14:29:03;97682.00;;;26.94;46.40
27202;BME280;14717;46.924;15.474;2022-09-03T14:40:30;97683.22;;;27.00;46.72
27202;BME280;14717;46.924;15.474;2022-09-03T14:50:51;97682.81;;;26.95;46.29
27202;BME280;14717;46.924;15.474;2022-09-03T14:53:54;97685.13;;;26.61;46.67
27202;BME280;14717;46.924;15.474;2022-09-03T14:57:16;97688.38;;;26.60;47.08
27202;BME280;14717;46.924;15.474;2022-09-03T15:03:17;97687.53;;;26.49;47.18
27202;BME280;14717;46.924;15.474;2022-09-03T15:08:33;97687.50;;;26.42;47.73
27202;BME280;14717;46.924;15.474;2022-09-03T15:11:03;97687.47;;;26.39;47.66
27202;BME280;14717;46.924;15.474;2022-09-03T15:13:33;97686.72;;;26.52;47.65
27202;BME280;14717;46.924;15.474;2022-09-03T15:21:15;97675.31;;;26.35;47.08
27202;BME280;14717;46.924;15.474;2022-09-03T15:24:16;97667.94;;;26.16;47.21
27202;BME280;14717;46.924;15.474;2022-09-03T15:29:47;97673.66;;;26.27;47.67
27202;BME280;14717;46.924;15.474;2022-09-03T15:32:37;97671.25;;;26.29;47.44
27202;BME280;14717;46.924;15.474;2022-09-03T15:35:08;97677.63;;;26.15;48.37
27202;BME280;14717;46.924;15.474;2022-09-03T15:40:24;97683.25;;;26.05;49.03
27202;BME280;14717;46.924;15.474;2022-09-03T15:42:57;97670.28;;;26.04;48.92
27202;BME280;14717;46.924;15.474;2022-09-03T15:45:33;97683.63;;;26.00;47.64
27202;BME280;14717;46.924;15.474;2022-09-03T15:48:55;97690.47;;;25.92;47.17
27202;BME280;14717;46.924;15.474;2022-09-03T15:51:56;97691.16;;;25.72;47.56
27202;BME280;14717;46.924;15.474;2022-09-03T15:58:10;97691.59;;;25.77;49.00
27202;BME280;14717;46.924;15.474;2022-09-03T16:12:39;97707.25;;;25.61;49.68
27202;BME280;14717;46.924;15.474;2022-09-03T16:15:18;97697.91;;;25.57;49.23
27202;BME280;14717;46.924;15.474;2022-09-03T16:18:00;97701.88;;;25.46;49.80
27202;BME280;14717;46.924;15.474;2022-09-03T16:23:10;97698.09;;;25.31;51.13
27202;BME280;14717;46.924;15.474;2022-09-03T16:25:57;97700.00;;;25.17;52.44
27202;BME280;14717;46.924;15.474;2022-09-03T16:50:41;97708.03;;;24.39;53.88